M.v.baiyangdian — 5IM503 — position and weather

sailwx.info

Track history (hours):
 
Tides and Currents Weather Stations Pressure Air Temp Water Temp Dewpoint Dewpoint Depression Visibility Wind Speed Wind Dir Waves Ship Positions

M.v.baiyangdian

Last reported at 2018-Apr-03 10:52 UTC. Time now 2018-Apr-24 14:45 UTC.
Position N 46°32' E 032°03'.
Warning: this ship's position is 21 days out of date.

Length 75 m; draft 3.6 m.

Type: Cargo ship. MMSI: 567235000.

Date/timePositionNaut miles runAvg speedWind from/ knotsBaromVisibWave heightAir tempDewpointWater temp
2018-Apr-03 10:52N 46°32' E 032°03'3 8.0
2018-Apr-03 10:30N 46°33' E 031°59'4 8.0
2018-Apr-03 10:00N 46°34' E 031°54'161 5.5
2018-Apr-02 04:27N 44°22' E 029°43'3 6.6
2018-Apr-02 04:00N 44°19' E 029°42'4 7.1
2018-Apr-02 03:30N 44°15' E 029°40'4 7.1
2018-Apr-02 03:00N 44°12' E 029°39'19 7.4
2018-Apr-02 00:29N 43°55' E 029°29'4 7.5
2018-Apr-01 23:58N 43°51' E 029°27'  
Track history (hours):
 
Tides and Currents Weather Stations Pressure Air Temp Water Temp Dewpoint Dewpoint Depression Visibility Wind Speed Wind Dir Waves Ship Positions

M.v.baiyangdian

Last reported at 2018-Apr-03 10:52 UTC. Time now 2018-Apr-24 14:45 UTC.
Position N 46°32' E 032°03'.
Warning: this ship's position is 21 days out of date.

Length 75 m; draft 3.6 m.

Type: Cargo ship. MMSI: 567235000.

Date/timePositionNaut miles runAvg speedWind from/ knotsBaromVisibWave heightAir tempDewpointWater temp
2018-Apr-03 10:52N 46°32' E 032°03'3 8.0
2018-Apr-03 10:30N 46°33' E 031°59'4 8.0
2018-Apr-03 10:00N 46°34' E 031°54'161 5.5
2018-Apr-02 04:27N 44°22' E 029°43'3 6.6
2018-Apr-02 04:00N 44°19' E 029°42'4 7.1
2018-Apr-02 03:30N 44°15' E 029°40'4 7.1
2018-Apr-02 03:00N 44°12' E 029°39'19 7.4
2018-Apr-02 00:29N 43°55' E 029°29'4 7.5
2018-Apr-01 23:58N 43°51' E 029°27'  

Dump ship's entire track history